Jan Ritscher — A8WZ8 — position and weather

sailwx.info

Track history (hours):
 
Tides and Currents Weather Stations Pressure Air Temp Water Temp Dewpoint Dewpoint Depression Visibility Wind Speed Wind Dir Waves Ship Positions

Jan Ritscher

Last reported at 2017-Sep-21 09:52 UTC. Time now 2017-Sep-25 10:01 UTC.
Position N 27°57' W 016°22'.

Length 208 m; draft 11 m.

Type: Ship. MMSI: 636092101.

Date/timePositionNaut miles runAvg speedWind from/ knotsBaromVisibWave heightAir tempDewpointWater temp
2017-Sep-21 09:52N 27°57' W 016°22'3 8.8
2017-Sep-21 09:29N 28°00' W 016°22'4 8.6
2017-Sep-21 08:59N 28°04' W 016°20'5 9.9
2017-Sep-21 08:26N 28°09' W 016°17'811.9
2017-Sep-21 07:45N 28°17' W 016°15'2 8.4
2017-Sep-21 07:27N 28°20' W 016°14'4 8.4
2017-Sep-21 07:00N 28°23' W 016°14'4 8.3
2017-Sep-21 06:31N 28°27' W 016°13'2 3.9
2017-Sep-21 06:00N 28°29' W 016°13'0 0.0
2017-Sep-21 04:19N 28°29' W 016°13'0 0.0
2017-Sep-21 03:55N 28°29' W 016°13'0 0.0
2017-Sep-21 03:07N 28°29' W 016°13'0 0.0
2017-Sep-21 02:55N 28°29' W 016°13'0 0.0
2017-Sep-21 02:22N 28°29' W 016°13'0 0.0
2017-Sep-21 01:55N 28°29' W 016°13'0 0.0
2017-Sep-21 01:25N 28°29' W 016°13'0 0.0
2017-Sep-21 00:43N 28°29' W 016°13'0 0.0
2017-Sep-20 19:58N 28°29' W 016°13'0 0.0
2017-Sep-20 19:28N 28°29' W 016°13'0 0.0
2017-Sep-20 18:58N 28°29' W 016°13'0 0.0
2017-Sep-20 18:16N 28°29' W 016°13'0 0.0
2017-Sep-20 17:49N 28°29' W 016°13'0 0.0
2017-Sep-20 17:16N 28°29' W 016°13'0 0.0
2017-Sep-20 16:49N 28°29' W 016°13'0 0.0
2017-Sep-20 16:22N 28°29' W 016°13'0 0.0
2017-Sep-20 14:52N 28°29' W 016°13'0 0.0
2017-Sep-20 13:55N 28°29' W 016°13'0 0.0
2017-Sep-20 13:29N 28°29' W 016°13'0 0.0
2017-Sep-20 13:00N 28°29' W 016°13'0 0.0
2017-Sep-20 12:30N 28°29' W 016°13'0 0.0
2017-Sep-20 12:00N 28°29' W 016°13'0 0.4
2017-Sep-20 11:30N 28°29' W 016°14'2 2.7
2017-Sep-20 10:57N 28°29' W 016°12'2 4.9
2017-Sep-20 10:30N 28°28' W 016°10'1 0.7
2017-Sep-20 09:37N 28°29' W 016°09'0 1.2
2017-Sep-20 09:28N 28°29' W 016°09'0 0.8
2017-Sep-20 09:00N 28°29' W 016°09'2 3.0
2017-Sep-20 08:28N 28°28' W 016°10'2 3.5
2017-Sep-20 08:00N 28°27' W 016°09'4 8.1
2017-Sep-20 07:28N 28°25' W 016°04'4 7.9
2017-Sep-20 07:00N 28°24' W 016°00'4 8.2
2017-Sep-20 06:30N 28°23' W 015°56'4 8.2
2017-Sep-20 06:00N 28°22' W 015°51'4 8.2
2017-Sep-20 05:30N 28°20' W 015°47'4 8.1
2017-Sep-20 05:00N 28°19' W 015°43'4 8.1
2017-Sep-20 04:30N 28°18' W 015°38'4 8.3
2017-Sep-20 04:00N 28°17' W 015°34'4 8.7
2017-Sep-20 03:30N 28°15' W 015°29'4 8.6
2017-Sep-20 03:00N 28°14' W 015°24'4 7.4
2017-Sep-20 02:30N 28°12' W 015°21'4 7.2
2017-Sep-20 02:00N 28°08' W 015°22'3 6.2
2017-Sep-20 01:30N 28°07' W 015°25'1 1.5
2017-Sep-20 01:00N 28°08' W 015°25'0 0.0
2017-Sep-20 00:25N 28°08' W 015°25'0 0.0
2017-Sep-19 23:58N 28°08' W 015°25'0 0.0
2017-Sep-19 23:28N 28°08' W 015°25'0 0.0
2017-Sep-19 22:58N 28°08' W 015°25'0 0.0
2017-Sep-19 22:28N 28°08' W 015°25'0 0.0
2017-Sep-19 21:58N 28°08' W 015°25'0 0.0
2017-Sep-19 21:28N 28°08' W 015°25'0 0.0
2017-Sep-19 20:58N 28°08' W 015°25'0 0.0
2017-Sep-19 20:28N 28°08' W 015°25'0 0.0
2017-Sep-19 19:58N 28°08' W 015°25'0 0.0
2017-Sep-19 19:13N 28°08' W 015°25'0 0.0
2017-Sep-19 18:58N 28°08' W 015°25'0 0.0
2017-Sep-19 18:28N 28°08' W 015°25'0 0.0
2017-Sep-19 17:58N 28°08' W 015°25'0 0.0
2017-Sep-19 17:19N 28°08' W 015°25'0 0.0
2017-Sep-19 16:49N 28°08' W 015°25'0 0.0
2017-Sep-19 16:19N 28°08' W 015°25'0 0.0
2017-Sep-19 15:52N 28°08' W 015°25'0 0.0
2017-Sep-19 15:22N 28°08' W 015°25'0 0.0
2017-Sep-19 14:52N 28°08' W 015°25'0 0.0
2017-Sep-19 14:22N 28°08' W 015°25'0 0.0
2017-Sep-19 13:52N 28°08' W 015°25'0 0.0
2017-Sep-19 13:25N 28°08' W 015°25'0 0.0
2017-Sep-19 12:55N 28°08' W 015°25'0 0.0
2017-Sep-19 12:25N 28°08' W 015°25'0 0.0
2017-Sep-19 11:55N 28°08' W 015°25'0 0.0
2017-Sep-19 11:25N 28°08' W 015°25'0 0.0
2017-Sep-19 10:55N 28°08' W 015°25'0 0.0
2017-Sep-19 10:28N 28°08' W 015°25'0 0.0
2017-Sep-19 09:58N 28°08' W 015°25'0 0.0
2017-Sep-19 09:28N 28°08' W 015°25'0 0.0
2017-Sep-19 08:58N 28°08' W 015°25'0 0.0
2017-Sep-19 08:28N 28°08' W 015°25'0 0.0
2017-Sep-19 07:58N 28°08' W 015°25'0 0.0
2017-Sep-19 07:28N 28°08' W 015°25'0 0.0
2017-Sep-19 06:58N 28°08' W 015°25'0 0.0
2017-Sep-19 06:28N 28°08' W 015°25'0 0.0
2017-Sep-19 05:58N 28°08' W 015°25'0 0.0
2017-Sep-19 05:28N 28°08' W 015°25'0 0.0
2017-Sep-19 04:58N 28°08' W 015°25'0 0.0
2017-Sep-19 04:28N 28°08' W 015°25'0 0.0
2017-Sep-19 03:49N 28°08' W 015°25'0 0.0
2017-Sep-19 03:19N 28°08' W 015°25'0 0.0
2017-Sep-19 02:49N 28°08' W 015°25'0 0.0
2017-Sep-19 02:22N 28°08' W 015°25'0 0.0
2017-Sep-19 01:52N 28°08' W 015°25'0 0.0
2017-Sep-19 01:22N 28°08' W 015°25'0 0.0
2017-Sep-19 00:52N 28°08' W 015°25'0 0.0
2017-Sep-19 00:22N 28°08' W 015°25'0 0.0
2017-Sep-18 23:52N 28°08' W 015°25'0 0.0
2017-Sep-18 23:25N 28°08' W 015°25'0 0.0
2017-Sep-18 22:55N 28°08' W 015°25'0 0.0
2017-Sep-18 22:25N 28°08' W 015°25'0 0.0
2017-Sep-18 21:55N 28°08' W 015°25'0 0.0
2017-Sep-18 21:25N 28°08' W 015°25'0 0.0
2017-Sep-18 20:55N 28°08' W 015°25'0 0.0
2017-Sep-18 20:28N 28°08' W 015°25'0 0.0
2017-Sep-18 19:58N 28°08' W 015°25'0 0.0
2017-Sep-18 19:28N 28°08' W 015°25'0 0.0
2017-Sep-18 18:58N 28°08' W 015°25'0 0.0
2017-Sep-18 18:28N 28°08' W 015°25'0 0.0
2017-Sep-18 17:58N 28°08' W 015°25'0 0.0
2017-Sep-18 17:28N 28°08' W 015°25'0 0.0
2017-Sep-18 16:58N 28°08' W 015°25'0 0.0
2017-Sep-18 16:28N 28°08' W 015°25'0 0.0
2017-Sep-18 15:58N 28°08' W 015°25'0 0.0
2017-Sep-18 15:28N 28°08' W 015°25'0 0.0
2017-Sep-18 14:58N 28°08' W 015°25'0 0.1
2017-Sep-18 14:28N 28°08' W 015°25'2 3.9
2017-Sep-18 13:57N 28°06' W 015°24'0 0.2
2017-Sep-18 13:27N 28°06' W 015°24'0 0.1
2017-Sep-18 12:57N 28°06' W 015°24'0 0.0
2017-Sep-18 12:27N 28°06' W 015°24'0 0.1
2017-Sep-18 12:00N 28°06' W 015°24'0 0.0
2017-Sep-18 11:27N 28°06' W 015°24'0 0.0
2017-Sep-18 11:00N 28°06' W 015°24'0 0.0
2017-Sep-18 10:30N 28°06' W 015°24'0 0.0
2017-Sep-18 10:00N 28°06' W 015°24'0 0.0
2017-Sep-18 09:30N 28°06' W 015°24'0 0.1
2017-Sep-18 09:00N 28°06' W 015°24'0 0.0
2017-Sep-18 08:30N 28°06' W 015°24'0 0.0
2017-Sep-18 08:00N 28°06' W 015°24'0 0.0
2017-Sep-18 07:30N 28°06' W 015°24'0 0.0
2017-Sep-18 07:00N 28°06' W 015°24'0 0.0
2017-Sep-18 06:30N 28°06' W 015°24'0 0.0
2017-Sep-18 06:00N 28°06' W 015°24'0 0.0
2017-Sep-18 05:30N 28°06' W 015°24'0 0.0
2017-Sep-18 05:00N 28°06' W 015°24'0 0.0
2017-Sep-18 04:21N 28°06' W 015°24'0 0.0
2017-Sep-18 03:51N 28°06' W 015°24'0 0.0
2017-Sep-18 03:24N 28°06' W 015°24'0 0.1
2017-Sep-18 02:54N 28°06' W 015°24'0 0.1
2017-Sep-18 02:24N 28°06' W 015°24'0 0.0
2017-Sep-18 01:51N 28°06' W 015°24'0 0.1
2017-Sep-18 01:24N 28°06' W 015°24'0 0.1
2017-Sep-18 00:54N 28°06' W 015°24'0 0.0
2017-Sep-18 00:27N 28°06' W 015°24'0 0.0
2017-Sep-17 23:57N 28°06' W 015°24'0 0.1
2017-Sep-17 23:27N 28°06' W 015°24'0 0.1
2017-Sep-17 22:57N 28°06' W 015°24'0 0.1
2017-Sep-17 22:27N 28°06' W 015°24'0 0.1
2017-Sep-17 22:00N 28°06' W 015°24'0 0.1
2017-Sep-17 21:30N 28°06' W 015°24'0 0.1
2017-Sep-17 21:00N 28°06' W 015°24'0 0.1
2017-Sep-17 20:30N 28°06' W 015°24'0 0.1
2017-Sep-17 20:00N 28°06' W 015°24'0 0.1
2017-Sep-17 19:30N 28°06' W 015°24'0 0.0
2017-Sep-17 19:00N 28°06' W 015°24'0 0.0
2017-Sep-17 18:30N 28°06' W 015°24'0 0.0
2017-Sep-17 18:00N 28°06' W 015°24'0 0.1
2017-Sep-17 17:30N 28°06' W 015°24'0 0.0
2017-Sep-17 17:00N 28°06' W 015°24'0 0.0
2017-Sep-17 16:30N 28°06' W 015°24'0 0.0
2017-Sep-17 16:00N 28°06' W 015°24'0 0.0
2017-Sep-17 15:30N 28°06' W 015°24'0 0.0
2017-Sep-17 14:51N 28°06' W 015°24'0 0.0
2017-Sep-17 14:21N 28°06' W 015°24'0 0.0
2017-Sep-17 13:51N 28°06' W 015°24'0 0.0
2017-Sep-17 13:21N 28°06' W 015°24'0 0.0
2017-Sep-17 12:54N 28°06' W 015°24'0 0.0
2017-Sep-17 12:24N 28°06' W 015°24'0 0.0
2017-Sep-17 11:54N 28°06' W 015°24'0 0.1
2017-Sep-17 11:24N 28°06' W 015°24'0 0.0
2017-Sep-17 10:54N 28°06' W 015°24'0 0.0
2017-Sep-17 10:27N 28°06' W 015°24'0 0.0
2017-Sep-17 09:57N 28°06' W 015°24'0 0.0
2017-Sep-17 09:27N 28°06' W 015°24'0 0.0
2017-Sep-17 08:57N 28°06' W 015°24'0 0.1
2017-Sep-17 08:27N 28°06' W 015°24'1 1.4
2017-Sep-17 08:00N 28°06' W 015°23'3 5.8
2017-Sep-17 07:30N 28°04' W 015°20'4 7.9
2017-Sep-17 07:00N 28°01' W 015°18'4 8.0
2017-Sep-17 06:30N 27°57' W 015°18'4 7.9
2017-Sep-17 06:00N 27°53' W 015°17'4 8.0
2017-Sep-17 05:30N 27°49' W 015°19'22 7.3
2017-Sep-17 02:33N 27°40' W 015°40'5 7.0
2017-Sep-17 01:54N 27°40' W 015°46'4 7.7
2017-Sep-17 01:20N 27°41' W 015°50'2 2.4
2017-Sep-17 00:41N 27°41' W 015°52'1 0.9
2017-Sep-16 23:31N 27°40' W 015°51'1 0.5
2017-Sep-16 20:37N 27°40' W 015°50'0 0.5
2017-Sep-16 20:28N 27°40' W 015°50'2 1.3
2017-Sep-16 19:06N 27°41' W 015°50'0 0.7
2017-Sep-16 19:00N 27°41' W 015°50'0 0.7
2017-Sep-16 18:27N 27°41' W 015°50'1 0.9
2017-Sep-16 17:35N 27°40' W 015°50'0 1.0
2017-Sep-16 17:29N 27°40' W 015°50'1 0.9
2017-Sep-16 16:46N 27°39' W 015°50'1 1.0
2017-Sep-16 15:46N 27°39' W 015°50'0 1.1
2017-Sep-16 15:21N 27°38' W 015°49'0 0.7
2017-Sep-16 15:00N 27°38' W 015°49'1 1.2
2017-Sep-16 14:25N 27°38' W 015°50'1 1.2
2017-Sep-16 14:00N 27°37' W 015°50'1 0.7
2017-Sep-16 12:28N 27°37' W 015°49'3 5.0
2017-Sep-16 11:52N 27°36' W 015°46'410.1
2017-Sep-16 11:29N 27°36' W 015°41'20 9.4
2017-Sep-16 09:24N 27°46' W 015°22'4 8.8
2017-Sep-16 09:00N 27°48' W 015°19'4 8.5
2017-Sep-16 08:30N 27°52' W 015°18'5 9.2
2017-Sep-16 08:00N 27°57' W 015°17'4 8.8
2017-Sep-16 07:30N 28°01' W 015°18'1 3.0
2017-Sep-16 07:00N 28°03' W 015°18'3 6.0
2017-Sep-16 06:30N 28°01' W 015°16'3 6.1
2017-Sep-16 06:00N 27°58' W 015°15'4 7.0
2017-Sep-16 05:30N 27°54' W 015°15'3 6.7
2017-Sep-16 05:00N 27°51' W 015°15'3 6.4
2017-Sep-16 04:30N 27°48' W 015°16'3 6.2
2017-Sep-16 04:00N 27°44' W 015°16'3 5.7
2017-Sep-16 03:28N 27°42' W 015°16'18 6.7
2017-Sep-16 00:51N 27°25' W 015°23'4 6.9
2017-Sep-16 00:15N 27°21' W 015°25'3 6.9
2017-Sep-15 23:51N 27°19' W 015°26'3 7.0
2017-Sep-15 23:26N 27°16' W 015°27'47 7.5
2017-Sep-15 17:06N 26°32' W 015°45'126 7.4
2017-Sep-15 00:08N 24°33' W 016°33'2 7.9
2017-Sep-14 23:51N 24°31' W 016°34'  
Track history (hours):
 
Tides and Currents Weather Stations Pressure Air Temp Water Temp Dewpoint Dewpoint Depression Visibility Wind Speed Wind Dir Waves Ship Positions

Jan Ritscher

Last reported at 2017-Sep-21 09:52 UTC. Time now 2017-Sep-25 10:01 UTC.
Position N 27°57' W 016°22'.

Length 208 m; draft 11 m.

Type: Ship. MMSI: 636092101.

Date/timePositionNaut miles runAvg speedWind from/ knotsBaromVisibWave heightAir tempDewpointWater temp
2017-Sep-21 09:52N 27°57' W 016°22'3 8.8
2017-Sep-21 09:29N 28°00' W 016°22'4 8.6
2017-Sep-21 08:59N 28°04' W 016°20'5 9.9
2017-Sep-21 08:26N 28°09' W 016°17'811.9
2017-Sep-21 07:45N 28°17' W 016°15'2 8.4
2017-Sep-21 07:27N 28°20' W 016°14'4 8.4
2017-Sep-21 07:00N 28°23' W 016°14'4 8.3
2017-Sep-21 06:31N 28°27' W 016°13'2 3.9
2017-Sep-21 06:00N 28°29' W 016°13'0 0.0
2017-Sep-21 04:19N 28°29' W 016°13'0 0.0
2017-Sep-21 03:55N 28°29' W 016°13'0 0.0
2017-Sep-21 03:07N 28°29' W 016°13'0 0.0
2017-Sep-21 02:55N 28°29' W 016°13'0 0.0
2017-Sep-21 02:22N 28°29' W 016°13'0 0.0
2017-Sep-21 01:55N 28°29' W 016°13'0 0.0
2017-Sep-21 01:25N 28°29' W 016°13'0 0.0
2017-Sep-21 00:43N 28°29' W 016°13'0 0.0
2017-Sep-20 19:58N 28°29' W 016°13'0 0.0
2017-Sep-20 19:28N 28°29' W 016°13'0 0.0
2017-Sep-20 18:58N 28°29' W 016°13'0 0.0
2017-Sep-20 18:16N 28°29' W 016°13'0 0.0
2017-Sep-20 17:49N 28°29' W 016°13'0 0.0
2017-Sep-20 17:16N 28°29' W 016°13'0 0.0
2017-Sep-20 16:49N 28°29' W 016°13'0 0.0
2017-Sep-20 16:22N 28°29' W 016°13'0 0.0
2017-Sep-20 14:52N 28°29' W 016°13'0 0.0
2017-Sep-20 13:55N 28°29' W 016°13'0 0.0
2017-Sep-20 13:29N 28°29' W 016°13'0 0.0
2017-Sep-20 13:00N 28°29' W 016°13'0 0.0
2017-Sep-20 12:30N 28°29' W 016°13'0 0.0
2017-Sep-20 12:00N 28°29' W 016°13'0 0.4
2017-Sep-20 11:30N 28°29' W 016°14'2 2.7
2017-Sep-20 10:57N 28°29' W 016°12'2 4.9
2017-Sep-20 10:30N 28°28' W 016°10'1 0.7
2017-Sep-20 09:37N 28°29' W 016°09'0 1.2
2017-Sep-20 09:28N 28°29' W 016°09'0 0.8
2017-Sep-20 09:00N 28°29' W 016°09'2 3.0
2017-Sep-20 08:28N 28°28' W 016°10'2 3.5
2017-Sep-20 08:00N 28°27' W 016°09'4 8.1
2017-Sep-20 07:28N 28°25' W 016°04'4 7.9
2017-Sep-20 07:00N 28°24' W 016°00'4 8.2
2017-Sep-20 06:30N 28°23' W 015°56'4 8.2
2017-Sep-20 06:00N 28°22' W 015°51'4 8.2
2017-Sep-20 05:30N 28°20' W 015°47'4 8.1
2017-Sep-20 05:00N 28°19' W 015°43'4 8.1
2017-Sep-20 04:30N 28°18' W 015°38'4 8.3
2017-Sep-20 04:00N 28°17' W 015°34'4 8.7
2017-Sep-20 03:30N 28°15' W 015°29'4 8.6
2017-Sep-20 03:00N 28°14' W 015°24'4 7.4
2017-Sep-20 02:30N 28°12' W 015°21'4 7.2
2017-Sep-20 02:00N 28°08' W 015°22'3 6.2
2017-Sep-20 01:30N 28°07' W 015°25'1 1.5
2017-Sep-20 01:00N 28°08' W 015°25'0 0.0
2017-Sep-20 00:25N 28°08' W 015°25'0 0.0
2017-Sep-19 23:58N 28°08' W 015°25'0 0.0
2017-Sep-19 23:28N 28°08' W 015°25'0 0.0
2017-Sep-19 22:58N 28°08' W 015°25'0 0.0
2017-Sep-19 22:28N 28°08' W 015°25'0 0.0
2017-Sep-19 21:58N 28°08' W 015°25'0 0.0
2017-Sep-19 21:28N 28°08' W 015°25'0 0.0
2017-Sep-19 20:58N 28°08' W 015°25'0 0.0
2017-Sep-19 20:28N 28°08' W 015°25'0 0.0
2017-Sep-19 19:58N 28°08' W 015°25'0 0.0
2017-Sep-19 19:13N 28°08' W 015°25'0 0.0
2017-Sep-19 18:58N 28°08' W 015°25'0 0.0
2017-Sep-19 18:28N 28°08' W 015°25'0 0.0
2017-Sep-19 17:58N 28°08' W 015°25'0 0.0
2017-Sep-19 17:19N 28°08' W 015°25'0 0.0
2017-Sep-19 16:49N 28°08' W 015°25'0 0.0
2017-Sep-19 16:19N 28°08' W 015°25'0 0.0
2017-Sep-19 15:52N 28°08' W 015°25'0 0.0
2017-Sep-19 15:22N 28°08' W 015°25'0 0.0
2017-Sep-19 14:52N 28°08' W 015°25'0 0.0
2017-Sep-19 14:22N 28°08' W 015°25'0 0.0
2017-Sep-19 13:52N 28°08' W 015°25'0 0.0
2017-Sep-19 13:25N 28°08' W 015°25'0 0.0
2017-Sep-19 12:55N 28°08' W 015°25'0 0.0
2017-Sep-19 12:25N 28°08' W 015°25'0 0.0
2017-Sep-19 11:55N 28°08' W 015°25'0 0.0
2017-Sep-19 11:25N 28°08' W 015°25'0 0.0
2017-Sep-19 10:55N 28°08' W 015°25'0 0.0
2017-Sep-19 10:28N 28°08' W 015°25'0 0.0
2017-Sep-19 09:58N 28°08' W 015°25'0 0.0
2017-Sep-19 09:28N 28°08' W 015°25'0 0.0
2017-Sep-19 08:58N 28°08' W 015°25'0 0.0
2017-Sep-19 08:28N 28°08' W 015°25'0 0.0
2017-Sep-19 07:58N 28°08' W 015°25'0 0.0
2017-Sep-19 07:28N 28°08' W 015°25'0 0.0
2017-Sep-19 06:58N 28°08' W 015°25'0 0.0
2017-Sep-19 06:28N 28°08' W 015°25'0 0.0
2017-Sep-19 05:58N 28°08' W 015°25'0 0.0
2017-Sep-19 05:28N 28°08' W 015°25'0 0.0
2017-Sep-19 04:58N 28°08' W 015°25'0 0.0
2017-Sep-19 04:28N 28°08' W 015°25'0 0.0
2017-Sep-19 03:49N 28°08' W 015°25'0 0.0
2017-Sep-19 03:19N 28°08' W 015°25'0 0.0
2017-Sep-19 02:49N 28°08' W 015°25'0 0.0
2017-Sep-19 02:22N 28°08' W 015°25'0 0.0
2017-Sep-19 01:52N 28°08' W 015°25'0 0.0
2017-Sep-19 01:22N 28°08' W 015°25'0 0.0
2017-Sep-19 00:52N 28°08' W 015°25'0 0.0
2017-Sep-19 00:22N 28°08' W 015°25'0 0.0
2017-Sep-18 23:52N 28°08' W 015°25'0 0.0
2017-Sep-18 23:25N 28°08' W 015°25'0 0.0
2017-Sep-18 22:55N 28°08' W 015°25'0 0.0
2017-Sep-18 22:25N 28°08' W 015°25'0 0.0
2017-Sep-18 21:55N 28°08' W 015°25'0 0.0
2017-Sep-18 21:25N 28°08' W 015°25'0 0.0
2017-Sep-18 20:55N 28°08' W 015°25'0 0.0
2017-Sep-18 20:28N 28°08' W 015°25'0 0.0
2017-Sep-18 19:58N 28°08' W 015°25'0 0.0
2017-Sep-18 19:28N 28°08' W 015°25'0 0.0
2017-Sep-18 18:58N 28°08' W 015°25'0 0.0
2017-Sep-18 18:28N 28°08' W 015°25'0 0.0
2017-Sep-18 17:58N 28°08' W 015°25'0 0.0
2017-Sep-18 17:28N 28°08' W 015°25'0 0.0
2017-Sep-18 16:58N 28°08' W 015°25'0 0.0
2017-Sep-18 16:28N 28°08' W 015°25'0 0.0
2017-Sep-18 15:58N 28°08' W 015°25'0 0.0
2017-Sep-18 15:28N 28°08' W 015°25'0 0.0
2017-Sep-18 14:58N 28°08' W 015°25'0 0.1
2017-Sep-18 14:28N 28°08' W 015°25'2 3.9
2017-Sep-18 13:57N 28°06' W 015°24'0 0.2
2017-Sep-18 13:27N 28°06' W 015°24'0 0.1
2017-Sep-18 12:57N 28°06' W 015°24'0 0.0
2017-Sep-18 12:27N 28°06' W 015°24'0 0.1
2017-Sep-18 12:00N 28°06' W 015°24'0 0.0
2017-Sep-18 11:27N 28°06' W 015°24'0 0.0
2017-Sep-18 11:00N 28°06' W 015°24'0 0.0
2017-Sep-18 10:30N 28°06' W 015°24'0 0.0
2017-Sep-18 10:00N 28°06' W 015°24'0 0.0
2017-Sep-18 09:30N 28°06' W 015°24'0 0.1
2017-Sep-18 09:00N 28°06' W 015°24'0 0.0
2017-Sep-18 08:30N 28°06' W 015°24'0 0.0
2017-Sep-18 08:00N 28°06' W 015°24'0 0.0
2017-Sep-18 07:30N 28°06' W 015°24'0 0.0
2017-Sep-18 07:00N 28°06' W 015°24'0 0.0
2017-Sep-18 06:30N 28°06' W 015°24'0 0.0
2017-Sep-18 06:00N 28°06' W 015°24'0 0.0
2017-Sep-18 05:30N 28°06' W 015°24'0 0.0
2017-Sep-18 05:00N 28°06' W 015°24'0 0.0
2017-Sep-18 04:21N 28°06' W 015°24'0 0.0
2017-Sep-18 03:51N 28°06' W 015°24'0 0.0
2017-Sep-18 03:24N 28°06' W 015°24'0 0.1
2017-Sep-18 02:54N 28°06' W 015°24'0 0.1
2017-Sep-18 02:24N 28°06' W 015°24'0 0.0
2017-Sep-18 01:51N 28°06' W 015°24'0 0.1
2017-Sep-18 01:24N 28°06' W 015°24'0 0.1
2017-Sep-18 00:54N 28°06' W 015°24'0 0.0
2017-Sep-18 00:27N 28°06' W 015°24'0 0.0
2017-Sep-17 23:57N 28°06' W 015°24'0 0.1
2017-Sep-17 23:27N 28°06' W 015°24'0 0.1
2017-Sep-17 22:57N 28°06' W 015°24'0 0.1
2017-Sep-17 22:27N 28°06' W 015°24'0 0.1
2017-Sep-17 22:00N 28°06' W 015°24'0 0.1
2017-Sep-17 21:30N 28°06' W 015°24'0 0.1
2017-Sep-17 21:00N 28°06' W 015°24'0 0.1
2017-Sep-17 20:30N 28°06' W 015°24'0 0.1
2017-Sep-17 20:00N 28°06' W 015°24'0 0.1
2017-Sep-17 19:30N 28°06' W 015°24'0 0.0
2017-Sep-17 19:00N 28°06' W 015°24'0 0.0
2017-Sep-17 18:30N 28°06' W 015°24'0 0.0
2017-Sep-17 18:00N 28°06' W 015°24'0 0.1
2017-Sep-17 17:30N 28°06' W 015°24'0 0.0
2017-Sep-17 17:00N 28°06' W 015°24'0 0.0
2017-Sep-17 16:30N 28°06' W 015°24'0 0.0
2017-Sep-17 16:00N 28°06' W 015°24'0 0.0
2017-Sep-17 15:30N 28°06' W 015°24'0 0.0
2017-Sep-17 14:51N 28°06' W 015°24'0 0.0
2017-Sep-17 14:21N 28°06' W 015°24'0 0.0
2017-Sep-17 13:51N 28°06' W 015°24'0 0.0
2017-Sep-17 13:21N 28°06' W 015°24'0 0.0
2017-Sep-17 12:54N 28°06' W 015°24'0 0.0
2017-Sep-17 12:24N 28°06' W 015°24'0 0.0
2017-Sep-17 11:54N 28°06' W 015°24'0 0.1
2017-Sep-17 11:24N 28°06' W 015°24'0 0.0
2017-Sep-17 10:54N 28°06' W 015°24'0 0.0
2017-Sep-17 10:27N 28°06' W 015°24'0 0.0
2017-Sep-17 09:57N 28°06' W 015°24'0 0.0
2017-Sep-17 09:27N 28°06' W 015°24'0 0.0
2017-Sep-17 08:57N 28°06' W 015°24'0 0.1
2017-Sep-17 08:27N 28°06' W 015°24'1 1.4
2017-Sep-17 08:00N 28°06' W 015°23'3 5.8
2017-Sep-17 07:30N 28°04' W 015°20'4 7.9
2017-Sep-17 07:00N 28°01' W 015°18'4 8.0
2017-Sep-17 06:30N 27°57' W 015°18'4 7.9
2017-Sep-17 06:00N 27°53' W 015°17'4 8.0
2017-Sep-17 05:30N 27°49' W 015°19'22 7.3
2017-Sep-17 02:33N 27°40' W 015°40'5 7.0
2017-Sep-17 01:54N 27°40' W 015°46'4 7.7
2017-Sep-17 01:20N 27°41' W 015°50'2 2.4
2017-Sep-17 00:41N 27°41' W 015°52'1 0.9
2017-Sep-16 23:31N 27°40' W 015°51'1 0.5
2017-Sep-16 20:37N 27°40' W 015°50'0 0.5
2017-Sep-16 20:28N 27°40' W 015°50'2 1.3
2017-Sep-16 19:06N 27°41' W 015°50'0 0.7
2017-Sep-16 19:00N 27°41' W 015°50'0 0.7
2017-Sep-16 18:27N 27°41' W 015°50'1 0.9
2017-Sep-16 17:35N 27°40' W 015°50'0 1.0
2017-Sep-16 17:29N 27°40' W 015°50'1 0.9
2017-Sep-16 16:46N 27°39' W 015°50'1 1.0
2017-Sep-16 15:46N 27°39' W 015°50'0 1.1
2017-Sep-16 15:21N 27°38' W 015°49'0 0.7
2017-Sep-16 15:00N 27°38' W 015°49'1 1.2
2017-Sep-16 14:25N 27°38' W 015°50'1 1.2
2017-Sep-16 14:00N 27°37' W 015°50'1 0.7
2017-Sep-16 12:28N 27°37' W 015°49'3 5.0
2017-Sep-16 11:52N 27°36' W 015°46'410.1
2017-Sep-16 11:29N 27°36' W 015°41'20 9.4
2017-Sep-16 09:24N 27°46' W 015°22'4 8.8
2017-Sep-16 09:00N 27°48' W 015°19'4 8.5
2017-Sep-16 08:30N 27°52' W 015°18'5 9.2
2017-Sep-16 08:00N 27°57' W 015°17'4 8.8
2017-Sep-16 07:30N 28°01' W 015°18'1 3.0
2017-Sep-16 07:00N 28°03' W 015°18'3 6.0
2017-Sep-16 06:30N 28°01' W 015°16'3 6.1
2017-Sep-16 06:00N 27°58' W 015°15'4 7.0
2017-Sep-16 05:30N 27°54' W 015°15'3 6.7
2017-Sep-16 05:00N 27°51' W 015°15'3 6.4
2017-Sep-16 04:30N 27°48' W 015°16'3 6.2
2017-Sep-16 04:00N 27°44' W 015°16'3 5.7
2017-Sep-16 03:28N 27°42' W 015°16'18 6.7
2017-Sep-16 00:51N 27°25' W 015°23'4 6.9
2017-Sep-16 00:15N 27°21' W 015°25'3 6.9
2017-Sep-15 23:51N 27°19' W 015°26'3 7.0
2017-Sep-15 23:26N 27°16' W 015°27'47 7.5
2017-Sep-15 17:06N 26°32' W 015°45'126 7.4
2017-Sep-15 00:08N 24°33' W 016°33'2 7.9
2017-Sep-14 23:51N 24°31' W 016°34'  

Dump ship's entire track history